Hudgins, Virginia
Current Conditions -  °F | °C
As of 8:15 PM on Tuesday 27 Jan 2015 (Local Time) from KW75 Reporting Station
Scattered Clouds Scattered Clouds  
Wind Chill: -4°   Ceiling: Unl
Heat Index:   Visibility: 10mi
Dew Point: -5°   Wind: 8mph
Humidity: 71%   Direction: 330°NNW
Pressure: 29.87"   Gusts: 24mph
Location:  37.47°N, 76.33°W
Report Text: KW75 280115Z AUTO 33007G21KT 10SM SCT100 00/M04 A2987 RMK AO1 T00021045
Loading
Personal Weather Stations






























Interactive Weather Map New forecast layout! Learn more

10-Day Weather Forecast

Advertisements
Track Severe Weather on mobile